Thomaston, Indiana
Current Conditions -  °F | °C
As of 10:56 PM on Wednesday 22 Oct 2014 (Local Time) from KVPZ Reporting Station
Clear Clear  
Wind Chill: 33°   Ceiling: Unl
Heat Index: 37°   Visibility: 9mi
Dew Point: 35°   Wind: 5mph
Humidity: 93%   Direction: 60°ENE
Pressure: 30.29"   Gusts: NA
Location:  41.4092°N, 86.8646°W
Report Text: KVPZ 230356Z AUTO 06004KT 9SM CLR 03/02 A3029 RMK AO2 SLP262 T00280017 TSNO
Loading
Personal Weather Stations






























Interactive Weather Map
Tropical Storm Tracking
New forecast layout! Learn more

10-Day Weather Forecast

Advertisements
Track Severe Weather on mobile